Flight Track Log - Related Links

Times and Time Zones

All times are in EDT time to prevent confusion due to time zone crossing. See the DAL3799 flight status page for this flight to view local times or setup timezone preferences in your user account.

Time Position Orientation Groundspeed Altitude Reporting Facility
EDT Latitude Longitude Course Direction KTS MPH feet Rate Location/Type
Thu 10:37:10 PM 42.2036 -83.3556 71° East 146 168 1,500  Level Cleveland Center
Thu 10:38:23 PM 42.1436 -83.3417 170° South 230 265 4,000 1,980 Climbing Cleveland Center
Thu 10:38:50 PM 42.1342 -83.2992 107° East 271 312 4,800 2,207 Climbing Cleveland Center
Thu 10:39:50 PM 42.1700 -83.1914 66° East 303 349 7,200 2,450 Climbing Cleveland Center
Thu 10:40:00 PM 42.6900 -83.1897 12° North  Level FlightAware
Thu 10:40:50 PM 42.2203 -83.0897 56° Northeast 341 392 9,700  Level Cleveland Center
Thu 10:41:00 PM 42.8139 -83.1478 16° North  Level FlightAware
Thu 10:41:50 PM 42.3081 -83.0764 North 337 388 11,700  Level Cleveland Center
Thu 10:42:00 PM 42.9018 -83.0599 71° East  Level FlightAware
Thu 10:42:50 PM 42.4100 -83.0889 355° North 352 405 13,000  Level Cleveland Center
Thu 10:43:50 PM 42.5244 -83.0992 356° North 379 436 14,100 1,450 Climbing Cleveland Center
Thu 10:44:50 PM 42.6408 -83.1122 355° North 407 468 15,900 1,700 Climbing Cleveland Center
Thu 10:45:50 PM 42.7469 -83.1222 356° North 420 483 17,500 1,600 Climbing Cleveland Center
Thu 10:46:50 PM 42.8597 -83.1069 North 420 483 19,100 1,300 Climbing Cleveland Center
Thu 10:47:50 PM 42.9231 -82.9789 56° Northeast 368 423 20,100 850 Climbing Cleveland Center
Thu 10:48:50 PM 42.9617 -82.8103 73° East 372 428 20,800 700 Climbing Cleveland Center
Thu 10:49:50 PM 42.9981 -82.6469 73° East 406 467 21,500 778 Climbing Cleveland Center
Thu 10:50:38 PM 43.0167 -82.5000 80° East 450 518 22,200 722 Climbing Toronto Center
Thu 10:51:38 PM 43.0500 -82.3333 75° East 460 529 22,800 650 Climbing Toronto Center
Thu 10:52:38 PM 43.0833 -82.1667 75° East 460 529 23,500 650 Climbing Toronto Center
Thu 10:53:38 PM 43.1167 -81.9833 76° East 460 529 24,100 500 Climbing Toronto Center
Thu 10:54:38 PM 43.1667 -81.8333 65° Northeast 470 541 24,500 450 Climbing Toronto Center
Thu 10:55:38 PM 43.2000 -81.6500 76° East 470 541 25,000 250 Climbing Toronto Center
Thu 10:56:38 PM 43.2333 -81.4667 76° East 470 541 25,000  Level Toronto Center
Thu 10:57:38 PM 43.2667 -81.3000 75° East 470 541 25,000  Level Toronto Center
Thu 10:58:38 PM 43.3000 -81.1167 76° East 480 552 25,000  Level Toronto Center
Thu 10:59:38 PM 43.3333 -80.9333 76° East 480 552 25,000  Level Toronto Center
Thu 11:00:38 PM 43.3667 -80.7833 73° East 480 552 25,000  Level Toronto Center
Thu 11:01:38 PM 43.4167 -80.6000 69° East 480 552 25,000  Level Toronto Center
Thu 11:02:38 PM 43.4333 -80.4167 83° East 490 564 25,000  Level Toronto Center
Thu 11:03:38 PM 43.4833 -80.2333 69° East 490 564 25,000  Level Toronto Center
Thu 11:04:38 PM 43.5333 -80.0667 67° East 490 564 25,000  Level Toronto Center
Thu 11:05:38 PM 43.5667 -79.8833 76° East 490 564 25,000  Level Toronto Center
Thu 11:06:38 PM 43.6167 -79.7333 65° Northeast 490 564 25,000  Level Toronto Center
Thu 11:07:38 PM 43.6667 -79.5167 72° East 490 564 25,000  Level Toronto Center
Thu 11:08:38 PM 43.7333 -79.3500 61° Northeast 480 552 25,000  Level Toronto Center
Thu 11:09:38 PM 43.7667 -79.2000 73° East 480 552 25,000  Level Toronto Center
Thu 11:10:38 PM 43.8167 -79.0167 69° East 480 552 25,000  Level Toronto Center
Thu 11:11:38 PM 43.8833 -78.8167 65° Northeast 480 552 25,000  Level Toronto Center
Thu 11:12:38 PM 43.9333 -78.6667 65° Northeast 490 564 25,000  Level Toronto Center
Thu 11:13:38 PM 43.9667 -78.5000 74° East 490 564 25,000  Level Toronto Center
Thu 11:14:38 PM 44.0167 -78.3167 69° East 490 564 25,000  Level Toronto Center
Thu 11:15:38 PM 44.0833 -78.1500 61° Northeast 490 564 25,000  Level Toronto Center
Thu 11:16:38 PM 44.1500 -77.9833 61° Northeast 500 575 25,000  Level Toronto Center
Thu 11:17:38 PM 44.2333 -77.8167 55° Northeast 500 575 25,000  Level Toronto Center
Thu 11:18:38 PM 44.3167 -77.6500 55° Northeast 500 575 25,000 -200 Level Toronto Center
Thu 11:19:38 PM 44.3833 -77.4833 61° Northeast 510 587 24,600 -709 Descending Toronto Center
Thu 11:20:28 PM 44.4500 -77.3667 51° Northeast 510 587 23,700 -1,036 Descending Montreal Center
Thu 11:21:28 PM 44.5333 -77.2167 52° Northeast 510 587 22,700 -950 Descending Montreal Center
Thu 11:22:28 PM 44.6000 -77.0500 61° Northeast 500 575 21,800 -1,050 Descending Montreal Center
Thu 11:23:28 PM 44.6833 -76.8833 55° Northeast 500 575 20,600 -1,350 Descending Montreal Center
Thu 11:24:28 PM 44.7500 -76.7167 61° Northeast 490 564 19,100 -1,600 Descending Montreal Center
Thu 11:25:28 PM 44.8333 -76.5833 49° Northeast 480 552 17,400 -1,450 Descending Montreal Center
Thu 11:26:28 PM 44.9000 -76.4167 61° Northeast 470 541 16,200 -1,300 Descending Montreal Center
Thu 11:27:28 PM 44.9667 -76.2500 60° Northeast 460 529 14,800 -1,450 Descending Montreal Center
Thu 11:28:28 PM 45.0333 -76.1167 55° Northeast 460 529 13,300 -1,550 Descending Montreal Center
Thu 11:29:28 PM 45.0833 -75.9667 65° Northeast 400 460 11,700 -1,600 Descending Montreal Center
Thu 11:30:28 PM 45.1333 -75.8500 59° Northeast 360 414 10,100 -1,600 Descending Montreal Center
Thu 11:31:28 PM 45.1833 -75.7333 59° Northeast 340 391 8,500 -1,700 Descending Montreal Center
Thu 11:32:28 PM 45.2333 -75.6167 59° Northeast 340 391 6,700 -1,800 Descending Montreal Center
Thu 11:33:28 PM 45.2833 -75.5000 59° Northeast 330 380 4,900 -1,450 Descending Montreal Center
Thu 11:34:28 PM 45.3333 -75.4000 55° Northeast 310 357 3,800 -900 Descending Montreal Center
Thu 11:35:28 PM 45.3833 -75.4000 360° North 220 253 3,100 -600 Descending Montreal Center
Thu 11:36:28 PM 45.3833 -75.4500 270° West 160 184 2,600 -550 Descending Montreal Center
Thu 11:37:28 PM 45.3667 -75.5167 250° West 150 173 2,000 -600 Descending Montreal Center

Login

Don't have an account? Register now (free) for customized features, flight alerts, and more!